sensor_id;sensor_type;location;lat;lon;timestamp;P1;durP1;ratioP1;P2;durP2;ratioP2
5129;SDS011;2583;50.946;6.954;2023-04-19T00:02:14;5.73;;;5.33;;
5129;SDS011;2583;50.946;6.954;2023-04-19T00:04:42;6.70;;;5.27;;
5129;SDS011;2583;50.946;6.954;2023-04-19T00:07:10;4.93;;;4.63;;
5129;SDS011;2583;50.946;6.954;2023-04-19T00:09:37;8.10;;;5.10;;
5129;SDS011;2583;50.946;6.954;2023-04-19T00:12:04;7.27;;;6.57;;
5129;SDS011;2583;50.946;6.954;2023-04-19T00:14:31;5.53;;;5.07;;
5129;SDS011;2583;50.946;6.954;2023-04-19T00:16:57;7.17;;;5.37;;
5129;SDS011;2583;50.946;6.954;2023-04-19T00:19:24;5.60;;;5.20;;
5129;SDS011;2583;50.946;6.954;2023-04-19T00:21:51;5.27;;;4.87;;
5129;SDS011;2583;50.946;6.954;2023-04-19T00:24:18;5.70;;;5.30;;
5129;SDS011;2583;50.946;6.954;2023-04-19T00:26:44;5.20;;;4.80;;
5129;SDS011;2583;50.946;6.954;2023-04-19T00:29:11;4.70;;;4.40;;
5129;SDS011;2583;50.946;6.954;2023-04-19T00:31:39;5.17;;;4.87;;
5129;SDS011;2583;50.946;6.954;2023-04-19T00:34:06;5.27;;;4.87;;
5129;SDS011;2583;50.946;6.954;2023-04-19T00:36:33;5.13;;;4.83;;
5129;SDS011;2583;50.946;6.954;2023-04-19T00:38:59;5.70;;;5.20;;
5129;SDS011;2583;50.946;6.954;2023-04-19T00:41:26;6.10;;;5.70;;
5129;SDS011;2583;50.946;6.954;2023-04-19T00:43:53;5.83;;;5.33;;
5129;SDS011;2583;50.946;6.954;2023-04-19T00:46:20;5.87;;;5.20;;
5129;SDS011;2583;50.946;6.954;2023-04-19T00:48:48;5.70;;;5.30;;
5129;SDS011;2583;50.946;6.954;2023-04-19T00:51:15;5.60;;;5.20;;
5129;SDS011;2583;50.946;6.954;2023-04-19T00:53:42;5.63;;;5.23;;
5129;SDS011;2583;50.946;6.954;2023-04-19T00:56:09;4.50;;;4.20;;
5129;SDS011;2583;50.946;6.954;2023-04-19T00:58:38;5.40;;;4.90;;
5129;SDS011;2583;50.946;6.954;2023-04-19T01:01:05;5.23;;;4.83;;
5129;SDS011;2583;50.946;6.954;2023-04-19T01:03:32;5.97;;;5.47;;
5129;SDS011;2583;50.946;6.954;2023-04-19T01:06:00;4.90;;;4.60;;
5129;SDS011;2583;50.946;6.954;2023-04-19T01:08:27;5.23;;;4.93;;
5129;SDS011;2583;50.946;6.954;2023-04-19T01:10:54;4.93;;;4.60;;
5129;SDS011;2583;50.946;6.954;2023-04-19T01:13:21;4.90;;;4.50;;
5129;SDS011;2583;50.946;6.954;2023-04-19T01:15:48;5.30;;;5.00;;
5129;SDS011;2583;50.946;6.954;2023-04-19T01:18:15;4.47;;;4.17;;
5129;SDS011;2583;50.946;6.954;2023-04-19T01:20:42;5.50;;;5.10;;
5129;SDS011;2583;50.946;6.954;2023-04-19T01:23:08;4.90;;;4.50;;
5129;SDS011;2583;50.946;6.954;2023-04-19T01:25:37;4.70;;;4.40;;
5129;SDS011;2583;50.946;6.954;2023-04-19T01:28:04;4.73;;;4.33;;
5129;SDS011;2583;50.946;6.954;2023-04-19T01:30:31;5.00;;;4.50;;
5129;SDS011;2583;50.946;6.954;2023-04-19T01:32:58;5.60;;;5.20;;
5129;SDS011;2583;50.946;6.954;2023-04-19T01:35:25;5.07;;;4.67;;
5129;SDS011;2583;50.946;6.954;2023-04-19T01:37:52;5.33;;;4.90;;
5129;SDS011;2583;50.946;6.954;2023-04-19T01:40:22;4.63;;;4.23;;
5129;SDS011;2583;50.946;6.954;2023-04-19T01:42:52;4.60;;;4.30;;
5129;SDS011;2583;50.946;6.954;2023-04-19T01:45:19;4.73;;;4.30;;
5129;SDS011;2583;50.946;6.954;2023-04-19T01:47:45;5.07;;;4.67;;
5129;SDS011;2583;50.946;6.954;2023-04-19T01:50:12;7.30;;;5.77;;
5129;SDS011;2583;50.946;6.954;2023-04-19T01:52:39;5.40;;;5.00;;
5129;SDS011;2583;50.946;6.954;2023-04-19T01:55:06;5.00;;;4.60;;
5129;SDS011;2583;50.946;6.954;2023-04-19T01:57:33;7.47;;;6.87;;
5129;SDS011;2583;50.946;6.954;2023-04-19T02:00:00;5.17;;;4.87;;
5129;SDS011;2583;50.946;6.954;2023-04-19T02:02:27;6.07;;;4.80;;
5129;SDS011;2583;50.946;6.954;2023-04-19T02:04:55;5.30;;;4.90;;
5129;SDS011;2583;50.946;6.954;2023-04-19T02:07:22;6.90;;;6.30;;
5129;SDS011;2583;50.946;6.954;2023-04-19T02:09:49;6.10;;;5.70;;
5129;SDS011;2583;50.946;6.954;2023-04-19T02:12:16;6.10;;;5.70;;
5129;SDS011;2583;50.946;6.954;2023-04-19T02:14:43;6.50;;;6.10;;
5129;SDS011;2583;50.946;6.954;2023-04-19T02:17:10;7.40;;;6.70;;
5129;SDS011;2583;50.946;6.954;2023-04-19T02:19:37;7.03;;;6.27;;
5129;SDS011;2583;50.946;6.954;2023-04-19T02:22:04;7.73;;;7.03;;
5129;SDS011;2583;50.946;6.954;2023-04-19T02:24:31;6.53;;;6.03;;
5129;SDS011;2583;50.946;6.954;2023-04-19T02:26:57;7.43;;;5.83;;
5129;SDS011;2583;50.946;6.954;2023-04-19T02:29:24;6.80;;;6.30;;
5129;SDS011;2583;50.946;6.954;2023-04-19T02:31:51;5.77;;;5.43;;
5129;SDS011;2583;50.946;6.954;2023-04-19T02:34:18;6.73;;;6.30;;
5129;SDS011;2583;50.946;6.954;2023-04-19T02:36:45;6.03;;;5.47;;
5129;SDS011;2583;50.946;6.954;2023-04-19T02:39:11;6.27;;;5.87;;
5129;SDS011;2583;50.946;6.954;2023-04-19T02:41:38;6.80;;;6.30;;
5129;SDS011;2583;50.946;6.954;2023-04-19T02:44:05;5.60;;;5.30;;
5129;SDS011;2583;50.946;6.954;2023-04-19T02:46:32;5.90;;;5.50;;
5129;SDS011;2583;50.946;6.954;2023-04-19T02:49:02;6.27;;;5.80;;
5129;SDS011;2583;50.946;6.954;2023-04-19T02:51:28;7.67;;;6.90;;
5129;SDS011;2583;50.946;6.954;2023-04-19T02:53:55;7.27;;;6.67;;
5129;SDS011;2583;50.946;6.954;2023-04-19T02:56:22;8.70;;;8.10;;
5129;SDS011;2583;50.946;6.954;2023-04-19T02:58:49;8.60;;;7.90;;
5129;SDS011;2583;50.946;6.954;2023-04-19T03:01:18;7.93;;;7.33;;
5129;SDS011;2583;50.946;6.954;2023-04-19T03:03:45;9.90;;;8.90;;
5129;SDS011;2583;50.946;6.954;2023-04-19T03:06:11;10.53;;;9.57;;
5129;SDS011;2583;50.946;6.954;2023-04-19T03:08:38;10.40;;;9.47;;
5129;SDS011;2583;50.946;6.954;2023-04-19T03:11:05;8.90;;;8.30;;
5129;SDS011;2583;50.946;6.954;2023-04-19T03:13:32;9.87;;;9.17;;
5129;SDS011;2583;50.946;6.954;2023-04-19T03:15:59;10.17;;;9.40;;
5129;SDS011;2583;50.946;6.954;2023-04-19T03:18:26;10.43;;;9.60;;
5129;SDS011;2583;50.946;6.954;2023-04-19T03:20:52;9.77;;;8.97;;
5129;SDS011;2583;50.946;6.954;2023-04-19T03:23:19;11.27;;;10.13;;
5129;SDS011;2583;50.946;6.954;2023-04-19T03:25:46;9.20;;;8.60;;
5129;SDS011;2583;50.946;6.954;2023-04-19T03:28:13;9.90;;;8.90;;
5129;SDS011;2583;50.946;6.954;2023-04-19T03:30:40;10.47;;;9.70;;
5129;SDS011;2583;50.946;6.954;2023-04-19T03:33:07;10.30;;;9.33;;
5129;SDS011;2583;50.946;6.954;2023-04-19T03:35:34;9.90;;;9.07;;
5129;SDS011;2583;50.946;6.954;2023-04-19T03:38:02;10.23;;;9.30;;
5129;SDS011;2583;50.946;6.954;2023-04-19T03:40:29;9.97;;;9.20;;
5129;SDS011;2583;50.946;6.954;2023-04-19T03:42:58;9.90;;;9.00;;
5129;SDS011;2583;50.946;6.954;2023-04-19T03:45:25;9.13;;;8.30;;
5129;SDS011;2583;50.946;6.954;2023-04-19T03:47:52;9.60;;;8.80;;
5129;SDS011;2583;50.946;6.954;2023-04-19T03:50:19;9.53;;;8.73;;
5129;SDS011;2583;50.946;6.954;2023-04-19T03:52:46;9.00;;;8.40;;
5129;SDS011;2583;50.946;6.954;2023-04-19T03:55:13;8.63;;;7.93;;
5129;SDS011;2583;50.946;6.954;2023-04-19T03:57:39;8.93;;;8.23;;
5129;SDS011;2583;50.946;6.954;2023-04-19T04:00:06;9.57;;;8.83;;
5129;SDS011;2583;50.946;6.954;2023-04-19T04:02:37;9.10;;;8.40;;
5129;SDS011;2583;50.946;6.954;2023-04-19T04:05:05;9.47;;;8.70;;
5129;SDS011;2583;50.946;6.954;2023-04-19T04:07:32;8.77;;;7.90;;
5129;SDS011;2583;50.946;6.954;2023-04-19T04:09:59;10.60;;;9.53;;
5129;SDS011;2583;50.946;6.954;2023-04-19T04:12:26;9.17;;;8.40;;
5129;SDS011;2583;50.946;6.954;2023-04-19T04:14:53;10.27;;;9.47;;
5129;SDS011;2583;50.946;6.954;2023-04-19T04:17:20;8.60;;;8.00;;
5129;SDS011;2583;50.946;6.954;2023-04-19T04:19:47;9.20;;;8.50;;
5129;SDS011;2583;50.946;6.954;2023-04-19T04:22:14;9.57;;;8.87;;
5129;SDS011;2583;50.946;6.954;2023-04-19T04:24:41;8.80;;;8.20;;
5129;SDS011;2583;50.946;6.954;2023-04-19T04:27:09;9.47;;;8.77;;
5129;SDS011;2583;50.946;6.954;2023-04-19T04:29:36;9.80;;;9.00;;
5129;SDS011;2583;50.946;6.954;2023-04-19T04:32:05;9.43;;;8.63;;
5129;SDS011;2583;50.946;6.954;2023-04-19T04:34:35;10.20;;;9.40;;
5129;SDS011;2583;50.946;6.954;2023-04-19T04:37:03;10.57;;;9.60;;
5129;SDS011;2583;50.946;6.954;2023-04-19T04:39:30;9.73;;;9.03;;
5129;SDS011;2583;50.946;6.954;2023-04-19T04:42:00;10.43;;;9.50;;
5129;SDS011;2583;50.946;6.954;2023-04-19T04:44:27;10.13;;;9.27;;
5129;SDS011;2583;50.946;6.954;2023-04-19T04:46:54;10.33;;;9.40;;
5129;SDS011;2583;50.946;6.954;2023-04-19T04:49:21;9.87;;;9.07;;
5129;SDS011;2583;50.946;6.954;2023-04-19T04:51:47;11.33;;;10.43;;
5129;SDS011;2583;50.946;6.954;2023-04-19T04:54:14;10.93;;;10.13;;
5129;SDS011;2583;50.946;6.954;2023-04-19T04:56:41;9.77;;;8.97;;
5129;SDS011;2583;50.946;6.954;2023-04-19T04:59:08;10.57;;;9.60;;
5129;SDS011;2583;50.946;6.954;2023-04-19T05:01:35;16.10;;;10.77;;
5129;SDS011;2583;50.946;6.954;2023-04-19T05:04:02;11.73;;;9.67;;
5129;SDS011;2583;50.946;6.954;2023-04-19T05:06:29;9.43;;;8.63;;
5129;SDS011;2583;50.946;6.954;2023-04-19T05:08:56;11.10;;;10.10;;
5129;SDS011;2583;50.946;6.954;2023-04-19T05:11:22;9.83;;;8.90;;
5129;SDS011;2583;50.946;6.954;2023-04-19T05:13:49;10.07;;;9.17;;
5129;SDS011;2583;50.946;6.954;2023-04-19T05:16:16;10.70;;;9.80;;
5129;SDS011;2583;50.946;6.954;2023-04-19T05:18:43;9.83;;;9.00;;
5129;SDS011;2583;50.946;6.954;2023-04-19T05:21:10;10.20;;;9.40;;
5129;SDS011;2583;50.946;6.954;2023-04-19T05:23:37;10.80;;;9.30;;
5129;SDS011;2583;50.946;6.954;2023-04-19T05:26:04;10.63;;;9.63;;
5129;SDS011;2583;50.946;6.954;2023-04-19T05:28:31;10.40;;;9.40;;
5129;SDS011;2583;50.946;6.954;2023-04-19T05:30:57;9.93;;;9.13;;
5129;SDS011;2583;50.946;6.954;2023-04-19T05:33:24;15.70;;;9.43;;
5129;SDS011;2583;50.946;6.954;2023-04-19T05:35:51;9.53;;;8.70;;
5129;SDS011;2583;50.946;6.954;2023-04-19T05:38:18;10.27;;;9.37;;
5129;SDS011;2583;50.946;6.954;2023-04-19T05:40:45;11.43;;;10.33;;
5129;SDS011;2583;50.946;6.954;2023-04-19T05:43:12;14.13;;;10.90;;
5129;SDS011;2583;50.946;6.954;2023-04-19T05:45:39;9.60;;;9.00;;
5129;SDS011;2583;50.946;6.954;2023-04-19T05:48:06;10.50;;;9.40;;
5129;SDS011;2583;50.946;6.954;2023-04-19T05:50:33;12.60;;;9.23;;
5129;SDS011;2583;50.946;6.954;2023-04-19T05:53:01;9.93;;;9.20;;
5129;SDS011;2583;50.946;6.954;2023-04-19T05:55:28;9.87;;;9.07;;
5129;SDS011;2583;50.946;6.954;2023-04-19T05:57:56;10.37;;;9.37;;
5129;SDS011;2583;50.946;6.954;2023-04-19T06:00:24;11.50;;;10.40;;
5129;SDS011;2583;50.946;6.954;2023-04-19T06:02:50;11.30;;;10.20;;
5129;SDS011;2583;50.946;6.954;2023-04-19T06:05:18;13.83;;;10.30;;
5129;SDS011;2583;50.946;6.954;2023-04-19T06:07:44;10.80;;;9.80;;
5129;SDS011;2583;50.946;6.954;2023-04-19T06:10:20;16.50;;;9.30;;
5129;SDS011;2583;50.946;6.954;2023-04-19T06:12:48;9.90;;;9.00;;
5129;SDS011;2583;50.946;6.954;2023-04-19T06:15:15;10.13;;;9.17;;
5129;SDS011;2583;50.946;6.954;2023-04-19T06:17:42;10.87;;;9.77;;
5129;SDS011;2583;50.946;6.954;2023-04-19T06:20:09;10.13;;;9.20;;
5129;SDS011;2583;50.946;6.954;2023-04-19T06:22:41;9.37;;;8.63;;
5129;SDS011;2583;50.946;6.954;2023-04-19T06:25:10;9.23;;;8.43;;
5129;SDS011;2583;50.946;6.954;2023-04-19T06:27:37;9.40;;;8.50;;
5129;SDS011;2583;50.946;6.954;2023-04-19T06:30:04;8.43;;;7.73;;
5129;SDS011;2583;50.946;6.954;2023-04-19T06:32:31;8.60;;;7.90;;
5129;SDS011;2583;50.946;6.954;2023-04-19T06:34:58;8.80;;;8.10;;
5129;SDS011;2583;50.946;6.954;2023-04-19T06:37:25;7.70;;;7.10;;
5129;SDS011;2583;50.946;6.954;2023-04-19T06:39:52;8.60;;;6.93;;
5129;SDS011;2583;50.946;6.954;2023-04-19T06:42:19;8.87;;;8.07;;
5129;SDS011;2583;50.946;6.954;2023-04-19T06:44:46;10.73;;;7.07;;
5129;SDS011;2583;50.946;6.954;2023-04-19T06:47:12;8.63;;;6.80;;
5129;SDS011;2583;50.946;6.954;2023-04-19T06:49:39;7.23;;;6.50;;
5129;SDS011;2583;50.946;6.954;2023-04-19T06:52:06;7.40;;;6.60;;
5129;SDS011;2583;50.946;6.954;2023-04-19T06:54:33;6.60;;;6.10;;
5129;SDS011;2583;50.946;6.954;2023-04-19T06:56:59;6.60;;;6.20;;
5129;SDS011;2583;50.946;6.954;2023-04-19T06:59:28;6.80;;;6.33;;
5129;SDS011;2583;50.946;6.954;2023-04-19T07:01:57;5.97;;;5.57;;
5129;SDS011;2583;50.946;6.954;2023-04-19T07:04:24;6.50;;;6.00;;
5129;SDS011;2583;50.946;6.954;2023-04-19T07:06:52;5.40;;;5.10;;
5129;SDS011;2583;50.946;6.954;2023-04-19T07:09:19;6.10;;;5.70;;
5129;SDS011;2583;50.946;6.954;2023-04-19T07:11:45;6.30;;;5.80;;
5129;SDS011;2583;50.946;6.954;2023-04-19T07:14:13;6.67;;;6.10;;
5129;SDS011;2583;50.946;6.954;2023-04-19T07:16:40;6.07;;;5.57;;
5129;SDS011;2583;50.946;6.954;2023-04-19T07:19:08;20.00;;;6.20;;
5129;SDS011;2583;50.946;6.954;2023-04-19T07:21:34;5.93;;;5.50;;
5129;SDS011;2583;50.946;6.954;2023-04-19T07:24:03;5.83;;;5.43;;
5129;SDS011;2583;50.946;6.954;2023-04-19T07:26:31;5.30;;;4.80;;
5129;SDS011;2583;50.946;6.954;2023-04-19T07:28:59;4.97;;;4.57;;
5129;SDS011;2583;50.946;6.954;2023-04-19T07:31:26;5.40;;;4.90;;
5129;SDS011;2583;50.946;6.954;2023-04-19T07:33:53;5.37;;;4.97;;
5129;SDS011;2583;50.946;6.954;2023-04-19T07:36:20;5.20;;;4.80;;
5129;SDS011;2583;50.946;6.954;2023-04-19T07:38:47;4.93;;;4.53;;
5129;SDS011;2583;50.946;6.954;2023-04-19T07:41:14;4.90;;;4.50;;
5129;SDS011;2583;50.946;6.954;2023-04-19T07:43:40;4.80;;;4.37;;
5129;SDS011;2583;50.946;6.954;2023-04-19T07:46:08;5.00;;;4.60;;
5129;SDS011;2583;50.946;6.954;2023-04-19T07:48:36;5.77;;;5.17;;
5129;SDS011;2583;50.946;6.954;2023-04-19T07:51:15;4.50;;;4.10;;
5129;SDS011;2583;50.946;6.954;2023-04-19T07:53:43;4.60;;;4.20;;
5129;SDS011;2583;50.946;6.954;2023-04-19T07:56:11;6.97;;;5.27;;
5129;SDS011;2583;50.946;6.954;2023-04-19T07:58:38;10.90;;;4.93;;
5129;SDS011;2583;50.946;6.954;2023-04-19T08:01:06;12.13;;;5.80;;
5129;SDS011;2583;50.946;6.954;2023-04-19T08:03:33;4.40;;;4.10;;
5129;SDS011;2583;50.946;6.954;2023-04-19T08:06:04;4.57;;;4.17;;
5129;SDS011;2583;50.946;6.954;2023-04-19T08:08:35;4.30;;;3.90;;
5129;SDS011;2583;50.946;6.954;2023-04-19T08:11:02;4.60;;;4.30;;
5129;SDS011;2583;50.946;6.954;2023-04-19T08:13:29;6.57;;;4.07;;
5129;SDS011;2583;50.946;6.954;2023-04-19T08:15:56;4.43;;;4.13;;
5129;SDS011;2583;50.946;6.954;2023-04-19T08:18:26;6.00;;;5.17;;
5129;SDS011;2583;50.946;6.954;2023-04-19T08:20:53;5.37;;;4.97;;
5129;SDS011;2583;50.946;6.954;2023-04-19T08:23:21;5.00;;;4.47;;
5129;SDS011;2583;50.946;6.954;2023-04-19T08:25:59;6.57;;;4.60;;
5129;SDS011;2583;50.946;6.954;2023-04-19T08:28:26;5.80;;;4.63;;
5129;SDS011;2583;50.946;6.954;2023-04-19T08:30:53;4.70;;;4.30;;
5129;SDS011;2583;50.946;6.954;2023-04-19T08:33:20;4.43;;;4.13;;
5129;SDS011;2583;50.946;6.954;2023-04-19T08:35:47;4.73;;;4.30;;
5129;SDS011;2583;50.946;6.954;2023-04-19T08:38:14;4.70;;;4.30;;
5129;SDS011;2583;50.946;6.954;2023-04-19T08:40:51;4.67;;;4.37;;
5129;SDS011;2583;50.946;6.954;2023-04-19T08:43:20;3.90;;;3.60;;
5129;SDS011;2583;50.946;6.954;2023-04-19T08:45:48;4.50;;;4.20;;
5129;SDS011;2583;50.946;6.954;2023-04-19T08:48:16;4.57;;;3.90;;
5129;SDS011;2583;50.946;6.954;2023-04-19T08:50:43;4.00;;;3.60;;
5129;SDS011;2583;50.946;6.954;2023-04-19T08:53:30;4.27;;;3.87;;
5129;SDS011;2583;50.946;6.954;2023-04-19T08:55:58;6.50;;;3.57;;
5129;SDS011;2583;50.946;6.954;2023-04-19T08:58:42;5.03;;;4.47;;
5129;SDS011;2583;50.946;6.954;2023-04-19T09:01:29;9.07;;;4.30;;
5129;SDS011;2583;50.946;6.954;2023-04-19T09:04:05;6.60;;;5.30;;
5129;SDS011;2583;50.946;6.954;2023-04-19T09:06:53;4.70;;;4.30;;
5129;SDS011;2583;50.946;6.954;2023-04-19T09:09:24;4.93;;;4.63;;
5129;SDS011;2583;50.946;6.954;2023-04-19T09:11:55;9.50;;;4.60;;
5129;SDS011;2583;50.946;6.954;2023-04-19T09:14:25;13.73;;;4.90;;
5129;SDS011;2583;50.946;6.954;2023-04-19T09:16:53;6.33;;;4.67;;
5129;SDS011;2583;50.946;6.954;2023-04-19T09:19:47;5.30;;;4.90;;
5129;SDS011;2583;50.946;6.954;2023-04-19T09:22:15;21.90;;;4.93;;
5129;SDS011;2583;50.946;6.954;2023-04-19T09:24:43;19.60;;;4.10;;
5129;SDS011;2583;50.946;6.954;2023-04-19T09:27:26;14.33;;;3.70;;
5129;SDS011;2583;50.946;6.954;2023-04-19T09:29:58;6.83;;;2.90;;
5129;SDS011;2583;50.946;6.954;2023-04-19T09:32:27;7.33;;;4.27;;
5129;SDS011;2583;50.946;6.954;2023-04-19T09:37:22;7.73;;;3.60;;
5129;SDS011;2583;50.946;6.954;2023-04-19T09:40:25;5.60;;;3.67;;
5129;SDS011;2583;50.946;6.954;2023-04-19T09:42:53;11.23;;;3.40;;
5129;SDS011;2583;50.946;6.954;2023-04-19T09:48:08;4.87;;;2.70;;
5129;SDS011;2583;50.946;6.954;2023-04-19T09:50:49;14.30;;;3.70;;
5129;SDS011;2583;50.946;6.954;2023-04-19T09:53:30;4.30;;;3.50;;
5129;SDS011;2583;50.946;6.954;2023-04-19T09:56:00;12.90;;;7.50;;
5129;SDS011;2583;50.946;6.954;2023-04-19T09:58:30;8.13;;;5.93;;
5129;SDS011;2583;50.946;6.954;2023-04-19T10:01:14;8.77;;;3.57;;
5129;SDS011;2583;50.946;6.954;2023-04-19T10:03:46;45.10;;;5.50;;
5129;SDS011;2583;50.946;6.954;2023-04-19T10:06:16;27.73;;;6.03;;
5129;SDS011;2583;50.946;6.954;2023-04-19T10:08:48;8.43;;;3.33;;
5129;SDS011;2583;50.946;6.954;2023-04-19T10:11:16;51.90;;;4.90;;
5129;SDS011;2583;50.946;6.954;2023-04-19T10:13:47;11.67;;;3.00;;
5129;SDS011;2583;50.946;6.954;2023-04-19T10:16:15;11.10;;;3.57;;
5129;SDS011;2583;50.946;6.954;2023-04-19T10:18:45;38.07;;;5.10;;
5129;SDS011;2583;50.946;6.954;2023-04-19T10:21:15;227.70;;;14.83;;
5129;SDS011;2583;50.946;6.954;2023-04-19T10:23:43;7.20;;;3.33;;
5129;SDS011;2583;50.946;6.954;2023-04-19T10:26:10;5.00;;;3.27;;
5129;SDS011;2583;50.946;6.954;2023-04-19T10:28:37;3.30;;;3.10;;
5129;SDS011;2583;50.946;6.954;2023-04-19T10:31:03;16.23;;;3.53;;
5129;SDS011;2583;50.946;6.954;2023-04-19T10:33:35;10.10;;;3.00;;
5129;SDS011;2583;50.946;6.954;2023-04-19T10:36:02;3.30;;;2.73;;
5129;SDS011;2583;50.946;6.954;2023-04-19T10:38:40;12.70;;;3.53;;
5129;SDS011;2583;50.946;6.954;2023-04-19T10:41:14;3.50;;;3.10;;
5129;SDS011;2583;50.946;6.954;2023-04-19T10:48:50;18.03;;;3.80;;
5129;SDS011;2583;50.946;6.954;2023-04-19T10:51:21;2.90;;;2.30;;
5129;SDS011;2583;50.946;6.954;2023-04-19T10:54:01;8.83;;;3.80;;
5129;SDS011;2583;50.946;6.954;2023-04-19T11:01:47;3.83;;;2.77;;
5129;SDS011;2583;50.946;6.954;2023-04-19T11:06:56;3.93;;;2.80;;
5129;SDS011;2583;50.946;6.954;2023-04-19T11:09:36;3.33;;;3.00;;
5129;SDS011;2583;50.946;6.954;2023-04-19T11:12:05;4.53;;;2.27;;
5129;SDS011;2583;50.946;6.954;2023-04-19T11:14:40;5.20;;;4.27;;
5129;SDS011;2583;50.946;6.954;2023-04-19T11:17:15;10.27;;;3.10;;
5129;SDS011;2583;50.946;6.954;2023-04-19T11:19:58;4.00;;;3.60;;
5129;SDS011;2583;50.946;6.954;2023-04-19T11:27:43;3.63;;;2.50;;
5129;SDS011;2583;50.946;6.954;2023-04-19T11:30:15;4.53;;;3.17;;
5129;SDS011;2583;50.946;6.954;2023-04-19T11:32:45;3.13;;;2.47;;
5129;SDS011;2583;50.946;6.954;2023-04-19T11:35:13;2.40;;;2.20;;
5129;SDS011;2583;50.946;6.954;2023-04-19T11:37:43;3.60;;;3.13;;
5129;SDS011;2583;50.946;6.954;2023-04-19T11:40:15;3.70;;;2.53;;
5129;SDS011;2583;50.946;6.954;2023-04-19T11:42:43;5.73;;;2.50;;
5129;SDS011;2583;50.946;6.954;2023-04-19T11:45:10;5.80;;;3.57;;
5129;SDS011;2583;50.946;6.954;2023-04-19T11:47:53;5.03;;;3.40;;
5129;SDS011;2583;50.946;6.954;2023-04-19T11:52:57;3.57;;;3.27;;
5129;SDS011;2583;50.946;6.954;2023-04-19T11:55:25;2.90;;;2.10;;
5129;SDS011;2583;50.946;6.954;2023-04-19T11:57:52;2.83;;;2.53;;
5129;SDS011;2583;50.946;6.954;2023-04-19T12:00:25;6.47;;;2.30;;
5129;SDS011;2583;50.946;6.954;2023-04-19T12:02:53;4.87;;;2.30;;
5129;SDS011;2583;50.946;6.954;2023-04-19T12:05:21;3.13;;;2.43;;
5129;SDS011;2583;50.946;6.954;2023-04-19T12:08:02;7.30;;;2.40;;
5129;SDS011;2583;50.946;6.954;2023-04-19T12:10:32;3.07;;;2.00;;
5129;SDS011;2583;50.946;6.954;2023-04-19T12:12:59;3.90;;;3.60;;
5129;SDS011;2583;50.946;6.954;2023-04-19T12:15:42;3.10;;;1.87;;
5129;SDS011;2583;50.946;6.954;2023-04-19T12:18:09;5.53;;;3.40;;
5129;SDS011;2583;50.946;6.954;2023-04-19T12:20:37;4.17;;;2.10;;
5129;SDS011;2583;50.946;6.954;2023-04-19T12:23:08;7.47;;;1.63;;
5129;SDS011;2583;50.946;6.954;2023-04-19T12:25:42;2.90;;;1.60;;
5129;SDS011;2583;50.946;6.954;2023-04-19T12:28:10;4.03;;;1.53;;
5129;SDS011;2583;50.946;6.954;2023-04-19T12:30:37;1.80;;;1.50;;
5129;SDS011;2583;50.946;6.954;2023-04-19T12:33:05;2.00;;;1.77;;
5129;SDS011;2583;50.946;6.954;2023-04-19T12:35:33;2.00;;;1.80;;
5129;SDS011;2583;50.946;6.954;2023-04-19T12:38:01;2.40;;;2.20;;
5129;SDS011;2583;50.946;6.954;2023-04-19T12:40:28;2.40;;;1.73;;
5129;SDS011;2583;50.946;6.954;2023-04-19T12:42:55;4.63;;;2.07;;
5129;SDS011;2583;50.946;6.954;2023-04-19T12:45:22;10.50;;;1.80;;
5129;SDS011;2583;50.946;6.954;2023-04-19T12:47:49;8.70;;;2.50;;
5129;SDS011;2583;50.946;6.954;2023-04-19T12:50:16;5.63;;;2.83;;
5129;SDS011;2583;50.946;6.954;2023-04-19T12:52:43;3.57;;;1.80;;
5129;SDS011;2583;50.946;6.954;2023-04-19T12:55:10;5.20;;;2.10;;
5129;SDS011;2583;50.946;6.954;2023-04-19T12:57:37;3.13;;;1.80;;
5129;SDS011;2583;50.946;6.954;2023-04-19T13:00:05;5.60;;;2.37;;
5129;SDS011;2583;50.946;6.954;2023-04-19T13:02:33;3.40;;;2.10;;
5129;SDS011;2583;50.946;6.954;2023-04-19T13:05:00;5.90;;;2.43;;
5129;SDS011;2583;50.946;6.954;2023-04-19T13:07:27;3.27;;;2.53;;
5129;SDS011;2583;50.946;6.954;2023-04-19T13:09:54;2.20;;;2.00;;
5129;SDS011;2583;50.946;6.954;2023-04-19T13:12:22;2.73;;;1.90;;
5129;SDS011;2583;50.946;6.954;2023-04-19T13:14:49;3.77;;;1.80;;
5129;SDS011;2583;50.946;6.954;2023-04-19T13:17:18;5.20;;;3.10;;
5129;SDS011;2583;50.946;6.954;2023-04-19T13:19:45;2.30;;;2.10;;
5129;SDS011;2583;50.946;6.954;2023-04-19T13:22:12;3.17;;;2.00;;
5129;SDS011;2583;50.946;6.954;2023-04-19T13:24:40;2.80;;;2.10;;
5129;SDS011;2583;50.946;6.954;2023-04-19T13:27:07;3.30;;;2.00;;
5129;SDS011;2583;50.946;6.954;2023-04-19T13:29:34;10.60;;;2.60;;
5129;SDS011;2583;50.946;6.954;2023-04-19T13:32:02;7.20;;;3.03;;
5129;SDS011;2583;50.946;6.954;2023-04-19T13:34:32;6.20;;;2.70;;
5129;SDS011;2583;50.946;6.954;2023-04-19T13:37:00;2.70;;;2.10;;
5129;SDS011;2583;50.946;6.954;2023-04-19T13:39:27;3.03;;;2.00;;
5129;SDS011;2583;50.946;6.954;2023-04-19T13:41:54;5.03;;;2.63;;
5129;SDS011;2583;50.946;6.954;2023-04-19T13:44:20;2.20;;;1.93;;
5129;SDS011;2583;50.946;6.954;2023-04-19T13:46:47;3.80;;;1.80;;
5129;SDS011;2583;50.946;6.954;2023-04-19T13:49:14;3.80;;;2.23;;
5129;SDS011;2583;50.946;6.954;2023-04-19T13:51:42;2.17;;;1.97;;
5129;SDS011;2583;50.946;6.954;2023-04-19T13:54:16;2.73;;;2.23;;
5129;SDS011;2583;50.946;6.954;2023-04-19T13:56:45;4.27;;;2.20;;
5129;SDS011;2583;50.946;6.954;2023-04-19T13:59:14;2.50;;;1.90;;
5129;SDS011;2583;50.946;6.954;2023-04-19T14:01:41;3.53;;;2.33;;
5129;SDS011;2583;50.946;6.954;2023-04-19T14:04:07;3.67;;;3.30;;
5129;SDS011;2583;50.946;6.954;2023-04-19T14:06:35;6.30;;;3.27;;
5129;SDS011;2583;50.946;6.954;2023-04-19T14:09:02;3.03;;;2.83;;
5129;SDS011;2583;50.946;6.954;2023-04-19T14:11:29;3.70;;;2.20;;
5129;SDS011;2583;50.946;6.954;2023-04-19T14:13:56;3.03;;;2.10;;
5129;SDS011;2583;50.946;6.954;2023-04-19T14:16:23;7.20;;;2.13;;
5129;SDS011;2583;50.946;6.954;2023-04-19T14:18:50;3.63;;;2.30;;
5129;SDS011;2583;50.946;6.954;2023-04-19T14:21:18;4.37;;;2.17;;
5129;SDS011;2583;50.946;6.954;2023-04-19T14:23:44;2.30;;;2.10;;
5129;SDS011;2583;50.946;6.954;2023-04-19T14:26:11;7.87;;;2.00;;
5129;SDS011;2583;50.946;6.954;2023-04-19T14:28:40;8.93;;;2.90;;
5129;SDS011;2583;50.946;6.954;2023-04-19T14:31:07;3.60;;;2.20;;
5129;SDS011;2583;50.946;6.954;2023-04-19T14:33:33;2.57;;;2.30;;
5129;SDS011;2583;50.946;6.954;2023-04-19T14:36:01;3.13;;;2.10;;
5129;SDS011;2583;50.946;6.954;2023-04-19T14:38:28;2.63;;;2.13;;
5129;SDS011;2583;50.946;6.954;2023-04-19T14:40:55;3.07;;;2.83;;
5129;SDS011;2583;50.946;6.954;2023-04-19T14:43:22;2.73;;;2.50;;
5129;SDS011;2583;50.946;6.954;2023-04-19T14:45:49;3.90;;;2.40;;
5129;SDS011;2583;50.946;6.954;2023-04-19T14:48:17;4.90;;;2.50;;
5129;SDS011;2583;50.946;6.954;2023-04-19T14:50:47;8.07;;;2.60;;
5129;SDS011;2583;50.946;6.954;2023-04-19T14:53:14;3.13;;;2.30;;
5129;SDS011;2583;50.946;6.954;2023-04-19T14:55:40;3.30;;;2.83;;
5129;SDS011;2583;50.946;6.954;2023-04-19T14:58:07;3.37;;;2.80;;
5129;SDS011;2583;50.946;6.954;2023-04-19T15:00:34;4.03;;;2.40;;
5129;SDS011;2583;50.946;6.954;2023-04-19T15:03:01;7.40;;;3.00;;
5129;SDS011;2583;50.946;6.954;2023-04-19T15:05:28;3.40;;;3.10;;
5129;SDS011;2583;50.946;6.954;2023-04-19T15:07:55;3.30;;;2.10;;
5129;SDS011;2583;50.946;6.954;2023-04-19T15:10:22;2.57;;;2.37;;
5129;SDS011;2583;50.946;6.954;2023-04-19T15:12:49;2.33;;;2.00;;
5129;SDS011;2583;50.946;6.954;2023-04-19T15:15:16;2.60;;;2.30;;
5129;SDS011;2583;50.946;6.954;2023-04-19T15:17:44;5.63;;;2.60;;
5129;SDS011;2583;50.946;6.954;2023-04-19T15:20:11;5.00;;;2.30;;
5129;SDS011;2583;50.946;6.954;2023-04-19T15:22:38;2.27;;;2.07;;
5129;SDS011;2583;50.946;6.954;2023-04-19T15:25:05;4.33;;;2.13;;
5129;SDS011;2583;50.946;6.954;2023-04-19T15:27:32;2.67;;;2.20;;
5129;SDS011;2583;50.946;6.954;2023-04-19T15:29:59;2.47;;;2.20;;
5129;SDS011;2583;50.946;6.954;2023-04-19T15:32:26;4.20;;;1.97;;
5129;SDS011;2583;50.946;6.954;2023-04-19T15:34:55;2.57;;;2.20;;
5129;SDS011;2583;50.946;6.954;2023-04-19T15:37:22;2.60;;;2.40;;
5129;SDS011;2583;50.946;6.954;2023-04-19T15:39:49;6.27;;;2.50;;
5129;SDS011;2583;50.946;6.954;2023-04-19T15:42:16;4.63;;;2.57;;
5129;SDS011;2583;50.946;6.954;2023-04-19T15:44:42;3.10;;;2.80;;
5129;SDS011;2583;50.946;6.954;2023-04-19T15:47:09;4.10;;;3.20;;